createdAt,value
2018-08-30T00:00:00.367Z,2.30
2018-08-30T00:02:12.580Z,2.30
2018-08-30T00:04:24.811Z,2.20
2018-08-30T00:06:37.027Z,2.17
2018-08-30T00:08:49.235Z,2.20
2018-08-30T00:11:01.437Z,2.70
2018-08-30T00:13:13.659Z,2.47
2018-08-30T00:15:25.829Z,2.53
2018-08-30T00:17:38.052Z,2.57
2018-08-30T00:19:50.239Z,2.87
2018-08-30T00:22:02.458Z,2.87
2018-08-30T00:24:14.639Z,2.60
2018-08-30T00:26:26.875Z,2.83
2018-08-30T00:28:39.068Z,2.57
2018-08-30T00:30:51.272Z,2.90
2018-08-30T00:33:03.536Z,2.80
2018-08-30T00:35:15.714Z,3.00
2018-08-30T00:37:27.911Z,3.10
2018-08-30T00:39:40.130Z,3.07
2018-08-30T00:41:52.313Z,3.40
2018-08-30T00:44:04.522Z,2.97
2018-08-30T00:46:16.739Z,3.03
2018-08-30T00:48:28.941Z,3.30
2018-08-30T00:50:41.123Z,3.77
2018-08-30T00:52:53.295Z,3.57
2018-08-30T00:55:05.502Z,3.17
2018-08-30T00:57:18.102Z,2.80
2018-08-30T00:59:30.301Z,3.10
2018-08-30T01:01:42.495Z,2.60
2018-08-30T01:03:54.726Z,2.93
2018-08-30T01:06:06.975Z,3.17
2018-08-30T01:08:19.163Z,2.93
2018-08-30T01:10:31.370Z,2.63
2018-08-30T01:12:49.103Z,2.53
2018-08-30T01:15:01.322Z,2.57
2018-08-30T01:17:13.521Z,2.70
2018-08-30T01:19:25.839Z,2.70
2018-08-30T01:21:38.028Z,2.83
2018-08-30T01:23:50.227Z,2.90
2018-08-30T01:26:02.482Z,2.50
2018-08-30T01:28:14.646Z,2.30
2018-08-30T01:30:26.839Z,2.57
2018-08-30T01:32:39.024Z,2.07
2018-08-30T01:34:51.204Z,2.33
2018-08-30T01:37:03.411Z,2.37
2018-08-30T01:39:15.554Z,2.70
2018-08-30T01:41:27.751Z,2.97
2018-08-30T01:43:39.957Z,2.07
2018-08-30T01:45:52.163Z,2.50
2018-08-30T01:48:04.388Z,2.47
2018-08-30T01:50:16.557Z,2.07
2018-08-30T01:52:28.796Z,2.03
2018-08-30T01:54:41.133Z,2.23
2018-08-30T01:56:53.286Z,1.90
2018-08-30T01:59:05.497Z,1.90
2018-08-30T02:01:17.727Z,1.90
2018-08-30T02:03:29.932Z,2.00
2018-08-30T02:05:42.122Z,1.87
2018-08-30T02:07:54.358Z,1.50
2018-08-30T02:10:06.619Z,1.80
2018-08-30T02:12:18.822Z,1.90
2018-08-30T02:14:31.011Z,1.60
2018-08-30T02:16:43.191Z,1.10
2018-08-30T02:18:55.417Z,1.80
2018-08-30T02:21:07.616Z,1.40
2018-08-30T02:23:19.801Z,1.33
2018-08-30T02:25:32.007Z,1.63
2018-08-30T02:27:44.230Z,1.30
2018-08-30T02:29:56.430Z,1.60
2018-08-30T02:32:08.666Z,1.23
2018-08-30T02:34:20.871Z,1.07
2018-08-30T02:36:33.065Z,1.60
2018-08-30T02:38:45.264Z,1.40
2018-08-30T02:40:57.478Z,1.10
2018-08-30T02:43:09.666Z,1.23
2018-08-30T02:45:21.882Z,1.67
2018-08-30T02:47:34.065Z,1.50
2018-08-30T02:49:46.258Z,1.60
2018-08-30T02:51:58.464Z,1.80
2018-08-30T02:54:10.683Z,1.57
2018-08-30T02:56:22.867Z,2.00
2018-08-30T02:58:35.045Z,1.53
2018-08-30T03:00:47.288Z,1.63
2018-08-30T03:02:59.437Z,1.70
2018-08-30T03:05:11.788Z,1.77
2018-08-30T03:07:23.962Z,1.77
2018-08-30T03:09:36.203Z,1.60
2018-08-30T03:11:48.401Z,1.60
2018-08-30T03:14:00.631Z,1.80
2018-08-30T03:16:12.817Z,2.23
2018-08-30T03:18:25.030Z,1.90
2018-08-30T03:20:37.201Z,1.90
2018-08-30T03:22:49.414Z,2.23
2018-08-30T03:25:01.923Z,2.53
2018-08-30T03:27:14.107Z,2.33
2018-08-30T03:29:26.287Z,2.83
2018-08-30T03:31:38.490Z,2.47
2018-08-30T03:33:50.664Z,2.23
2018-08-30T03:36:02.830Z,2.30
2018-08-30T03:38:15.129Z,2.20
2018-08-30T03:40:27.274Z,2.60
2018-08-30T03:42:39.495Z,2.80
2018-08-30T03:44:51.677Z,2.80
2018-08-30T03:47:03.980Z,2.30
2018-08-30T03:49:16.134Z,3.17
2018-08-30T03:51:28.322Z,2.50
2018-08-30T03:53:40.502Z,2.70
2018-08-30T03:55:52.692Z,3.07
2018-08-30T03:58:04.963Z,3.03
2018-08-30T04:00:17.168Z,3.97
2018-08-30T04:02:29.357Z,3.77
2018-08-30T04:04:41.649Z,4.23
2018-08-30T04:06:53.830Z,4.20
2018-08-30T04:09:07.155Z,4.57
2018-08-30T04:11:19.327Z,4.10
2018-08-30T04:13:31.571Z,4.27
2018-08-30T04:15:43.760Z,5.00
2018-08-30T04:17:55.991Z,4.20
2018-08-30T04:20:08.188Z,4.60
2018-08-30T04:22:20.378Z,4.50
2018-08-30T04:24:32.575Z,4.87
2018-08-30T04:26:44.783Z,3.87
2018-08-30T04:28:56.955Z,3.70
2018-08-30T04:31:09.176Z,4.73
2018-08-30T04:33:21.331Z,4.60
2018-08-30T04:35:33.583Z,4.53
2018-08-30T04:37:45.795Z,4.17
2018-08-30T04:39:57.996Z,4.77
2018-08-30T04:42:10.215Z,5.17
2018-08-30T04:44:22.418Z,5.07
2018-08-30T04:46:34.646Z,5.40
2018-08-30T04:48:46.910Z,4.63
2018-08-30T04:50:59.207Z,3.97
2018-08-30T04:53:11.428Z,4.33
2018-08-30T04:55:23.611Z,4.03
2018-08-30T04:57:35.795Z,4.00
2018-08-30T04:59:47.982Z,3.90
2018-08-30T05:02:00.228Z,3.70
2018-08-30T05:04:12.520Z,4.33
2018-08-30T05:06:24.678Z,4.00
2018-08-30T05:08:36.969Z,3.40
2018-08-30T05:10:49.238Z,3.40
2018-08-30T05:13:01.446Z,3.20
2018-08-30T05:15:13.643Z,3.63
2018-08-30T05:17:25.851Z,3.40
2018-08-30T05:19:38.064Z,3.20
2018-08-30T05:21:50.276Z,2.77
2018-08-30T05:24:02.518Z,3.03
2018-08-30T05:26:14.728Z,3.13
2018-08-30T05:28:26.959Z,3.67
2018-08-30T05:30:39.180Z,3.07
2018-08-30T05:32:51.407Z,3.73
2018-08-30T05:35:03.639Z,3.33
2018-08-30T05:37:15.849Z,2.97
2018-08-30T05:39:28.042Z,3.53
2018-08-30T05:41:40.254Z,3.90
2018-08-30T05:43:52.471Z,4.20
2018-08-30T05:46:04.649Z,4.20
2018-08-30T05:48:16.863Z,4.07
2018-08-30T05:50:29.056Z,4.67
2018-08-30T05:52:41.260Z,5.40
2018-08-30T05:54:53.452Z,6.00
2018-08-30T05:57:05.648Z,5.87
2018-08-30T05:59:17.870Z,5.97
2018-08-30T06:01:30.117Z,6.00
2018-08-30T06:03:42.341Z,6.40
2018-08-30T06:05:54.523Z,6.93
2018-08-30T06:08:06.794Z,7.87
2018-08-30T06:10:18.965Z,7.43
2018-08-30T06:12:31.238Z,7.20
2018-08-30T06:14:43.439Z,6.33
2018-08-30T06:16:55.666Z,7.50
2018-08-30T06:19:08.002Z,8.63
2018-08-30T06:21:20.192Z,8.33
2018-08-30T06:23:32.371Z,8.63
2018-08-30T06:25:44.602Z,9.60
2018-08-30T06:27:56.816Z,9.13
2018-08-30T06:30:09.010Z,8.97
2018-08-30T06:32:21.322Z,9.17
2018-08-30T06:34:33.516Z,8.80
2018-08-30T06:36:45.946Z,9.23
2018-08-30T06:38:58.136Z,9.03
2018-08-30T06:41:10.383Z,9.50
2018-08-30T06:43:22.574Z,9.50
2018-08-30T06:45:34.878Z,8.87
2018-08-30T06:47:46.999Z,10.17
2018-08-30T06:49:59.201Z,9.80
2018-08-30T06:52:11.402Z,10.10
2018-08-30T06:54:23.585Z,10.97
2018-08-30T06:56:35.767Z,9.93
2018-08-30T06:58:48.011Z,10.07
2018-08-30T07:01:00.175Z,11.03
2018-08-30T07:03:12.362Z,11.37
2018-08-30T07:05:24.614Z,11.07
2018-08-30T07:07:36.814Z,9.40
2018-08-30T07:09:49.091Z,10.13
2018-08-30T07:12:01.315Z,9.23
2018-08-30T07:14:13.531Z,8.93
2018-08-30T07:16:25.726Z,8.93
2018-08-30T07:18:37.998Z,8.10
2018-08-30T07:20:50.178Z,7.53
2018-08-30T07:23:02.561Z,7.80
2018-08-30T07:25:14.763Z,8.67
2018-08-30T07:27:26.943Z,7.50
2018-08-30T07:29:39.156Z,6.33
2018-08-30T07:31:51.350Z,7.27
2018-08-30T07:34:03.601Z,7.13
2018-08-30T07:36:15.787Z,7.23
2018-08-30T07:38:28.019Z,7.40
2018-08-30T07:40:40.265Z,7.40
2018-08-30T07:42:52.459Z,7.70
2018-08-30T07:45:04.727Z,6.90
2018-08-30T07:47:16.924Z,7.00
2018-08-30T07:49:29.097Z,6.73
2018-08-30T07:51:41.328Z,7.17
2018-08-30T07:53:53.462Z,7.27
2018-08-30T07:56:05.975Z,6.60
2018-08-30T07:58:18.250Z,6.57
2018-08-30T08:00:30.569Z,7.03
2018-08-30T08:02:42.843Z,6.30
2018-08-30T08:04:55.090Z,6.10
2018-08-30T08:07:07.337Z,6.50
2018-08-30T08:09:19.555Z,6.40
2018-08-30T08:11:31.760Z,5.37
2018-08-30T08:13:43.954Z,5.97
2018-08-30T08:15:56.230Z,6.10
2018-08-30T08:18:08.518Z,5.83
2018-08-30T08:20:20.706Z,5.90
2018-08-30T08:22:32.963Z,5.80
2018-08-30T08:24:45.273Z,5.33
2018-08-30T08:26:57.467Z,5.13
2018-08-30T08:29:09.670Z,5.30
2018-08-30T08:31:21.915Z,4.97
2018-08-30T08:33:34.183Z,4.80
2018-08-30T08:35:46.413Z,5.13
2018-08-30T08:37:58.623Z,5.53
2018-08-30T08:40:10.954Z,4.60
2018-08-30T08:42:23.139Z,5.40
2018-08-30T08:44:35.381Z,5.00
2018-08-30T08:46:47.610Z,5.67
2018-08-30T08:48:59.867Z,5.10
2018-08-30T08:51:12.167Z,5.10
2018-08-30T08:53:24.386Z,4.57
2018-08-30T08:55:36.636Z,4.53
2018-08-30T08:57:48.838Z,4.90
2018-08-30T09:00:01.083Z,4.63
2018-08-30T09:02:13.298Z,4.57
2018-08-30T09:04:25.530Z,4.60
2018-08-30T09:06:37.803Z,4.33
2018-08-30T09:08:49.994Z,3.73
2018-08-30T09:11:02.231Z,4.67
2018-08-30T09:13:14.439Z,4.87
2018-08-30T09:15:26.722Z,4.40
2018-08-30T09:17:38.943Z,4.60
2018-08-30T09:19:51.203Z,4.60
2018-08-30T09:22:03.470Z,3.73
2018-08-30T09:24:15.671Z,4.07
2018-08-30T09:26:27.915Z,3.93
2018-08-30T09:28:40.147Z,4.10
2018-08-30T09:30:52.357Z,4.60
2018-08-30T09:33:05.071Z,3.93
2018-08-30T09:35:17.249Z,3.50
2018-08-30T09:37:29.525Z,3.40
2018-08-30T09:39:42.531Z,4.17
2018-08-30T09:41:54.753Z,4.03
2018-08-30T09:44:07.075Z,4.07
2018-08-30T09:46:19.262Z,5.17
2018-08-30T09:48:31.463Z,4.30
2018-08-30T09:50:43.714Z,4.87
2018-08-30T09:52:55.914Z,4.47
2018-08-30T09:55:08.155Z,4.63
2018-08-30T09:57:20.691Z,5.20
2018-08-30T09:59:32.636Z,5.23
2018-08-30T10:01:50.077Z,6.17
2018-08-30T10:04:02.352Z,5.33
2018-08-30T10:06:14.584Z,4.70
2018-08-30T10:08:26.860Z,5.87
2018-08-30T10:10:39.067Z,5.70
2018-08-30T10:12:51.258Z,5.43
2018-08-30T10:15:03.543Z,6.70
2018-08-30T10:17:15.788Z,6.77
2018-08-30T10:19:27.998Z,6.60
2018-08-30T10:21:40.315Z,6.47
2018-08-30T10:23:52.590Z,5.10
2018-08-30T10:26:05.295Z,5.70
2018-08-30T10:28:17.521Z,5.80
2018-08-30T10:30:29.742Z,5.93
2018-08-30T10:32:41.987Z,6.17
2018-08-30T10:34:54.235Z,6.10
2018-08-30T10:37:06.577Z,5.40
2018-08-30T10:39:18.671Z,6.17
2018-08-30T10:41:30.911Z,5.70
2018-08-30T10:43:43.111Z,4.90
2018-08-30T10:45:55.315Z,5.17
2018-08-30T10:48:07.543Z,5.17
2018-08-30T10:50:21.924Z,5.30
2018-08-30T10:52:34.155Z,5.07
2018-08-30T10:54:46.424Z,5.67
2018-08-30T10:56:58.599Z,5.20
2018-08-30T10:59:10.796Z,5.30
2018-08-30T11:01:23.065Z,5.80
2018-08-30T11:03:35.388Z,5.90
2018-08-30T11:05:47.677Z,5.60
2018-08-30T11:08:00.098Z,5.53
2018-08-30T11:10:12.408Z,5.33
2018-08-30T11:12:24.635Z,5.37
2018-08-30T11:14:36.842Z,5.87
2018-08-30T11:16:49.074Z,5.87
2018-08-30T11:19:01.249Z,6.27
2018-08-30T11:21:13.500Z,5.93
2018-08-30T11:23:25.807Z,6.57
2018-08-30T11:25:38.010Z,6.20
2018-08-30T11:27:50.265Z,6.87
2018-08-30T11:30:02.498Z,7.17
2018-08-30T11:32:14.850Z,7.27
2018-08-30T11:34:27.086Z,6.60
2018-08-30T11:36:39.302Z,6.87
2018-08-30T11:38:51.502Z,6.53
2018-08-30T11:41:03.695Z,6.00
2018-08-30T11:43:16.013Z,6.50
2018-08-30T11:45:28.175Z,6.37
2018-08-30T11:47:40.403Z,6.17
2018-08-30T11:49:52.693Z,6.90
2018-08-30T11:52:05.076Z,6.60
2018-08-30T11:54:17.264Z,6.10
2018-08-30T11:56:29.423Z,6.60
2018-08-30T11:58:41.695Z,6.37
2018-08-30T12:00:53.945Z,6.13
2018-08-30T12:03:06.173Z,6.30
2018-08-30T12:05:18.486Z,6.73
2018-08-30T12:07:30.717Z,6.80
2018-08-30T12:09:42.906Z,7.53
2018-08-30T12:11:55.183Z,7.07
2018-08-30T12:14:07.402Z,7.63
2018-08-30T12:16:19.702Z,7.10
2018-08-30T12:18:31.945Z,7.27
2018-08-30T12:20:44.279Z,7.10
2018-08-30T12:22:56.406Z,6.97
2018-08-30T12:25:08.646Z,6.93
2018-08-30T12:27:20.930Z,7.17
2018-08-30T12:29:33.173Z,7.63
2018-08-30T12:31:45.545Z,7.07
2018-08-30T12:33:57.861Z,6.97
2018-08-30T12:36:10.075Z,7.67
2018-08-30T12:38:22.313Z,7.83
2018-08-30T12:40:34.560Z,7.90
2018-08-30T12:42:46.712Z,7.20
2018-08-30T12:44:59.287Z,7.00
2018-08-30T12:47:11.502Z,7.03
2018-08-30T12:49:23.798Z,6.70
2018-08-30T12:51:36.184Z,7.93
2018-08-30T12:53:48.318Z,6.47
2018-08-30T12:56:00.566Z,7.80
2018-08-30T12:58:12.811Z,7.40
2018-08-30T13:00:25.100Z,7.40
2018-08-30T13:02:37.330Z,7.47
2018-08-30T13:04:49.823Z,6.80
2018-08-30T13:07:01.856Z,7.20
2018-08-30T13:09:15.565Z,7.20
2018-08-30T13:11:27.610Z,7.17
2018-08-30T13:13:39.945Z,6.63
2018-08-30T13:15:52.053Z,7.50
2018-08-30T13:18:04.192Z,7.60
2018-08-30T13:20:16.445Z,7.30
2018-08-30T13:22:28.819Z,7.23
2018-08-30T13:24:41.118Z,7.60
2018-08-30T13:26:53.273Z,7.50
2018-08-30T13:29:05.587Z,7.33
2018-08-30T13:31:17.778Z,7.23
2018-08-30T13:33:29.959Z,7.03
2018-08-30T13:35:42.385Z,8.00
2018-08-30T13:37:54.711Z,7.67
2018-08-30T13:40:06.805Z,7.63
2018-08-30T13:42:19.196Z,7.87
2018-08-30T13:44:31.291Z,7.47
2018-08-30T13:46:43.580Z,7.97
2018-08-30T13:48:55.622Z,7.13
2018-08-30T13:51:07.870Z,7.63
2018-08-30T13:53:20.352Z,7.30
2018-08-30T13:55:32.354Z,6.83
2018-08-30T13:57:44.925Z,7.93
2018-08-30T13:59:57.211Z,7.30
2018-08-30T14:02:09.024Z,7.43
2018-08-30T14:04:21.381Z,7.87
2018-08-30T14:06:33.492Z,7.90
2018-08-30T14:08:45.870Z,7.60
2018-08-30T14:10:58.039Z,7.10
2018-08-30T14:13:10.300Z,7.40
2018-08-30T14:15:22.783Z,8.07
2018-08-30T14:17:34.425Z,7.47
2018-08-30T14:19:46.741Z,7.73
2018-08-30T14:21:59.007Z,8.30
2018-08-30T14:24:11.402Z,7.17
2018-08-30T14:26:23.499Z,8.27
2018-08-30T14:28:35.633Z,6.80
2018-08-30T14:30:47.822Z,7.63
2018-08-30T14:33:00.037Z,7.67
2018-08-30T14:35:12.277Z,7.37
2018-08-30T14:37:24.525Z,7.57
2018-08-30T14:39:36.736Z,8.00
2018-08-30T14:41:49.081Z,7.63
2018-08-30T14:44:01.208Z,7.83
2018-08-30T14:46:13.418Z,8.27
2018-08-30T14:48:25.630Z,7.67
2018-08-30T14:50:37.856Z,7.40
2018-08-30T14:52:50.144Z,7.77
2018-08-30T14:55:02.307Z,7.80
2018-08-30T14:57:14.589Z,7.37
2018-08-30T14:59:26.804Z,8.53
2018-08-30T15:01:39.017Z,6.40
2018-08-30T15:03:51.226Z,5.90
2018-08-30T15:06:03.553Z,8.13
2018-08-30T15:08:15.695Z,7.87
2018-08-30T15:10:27.939Z,7.73
2018-08-30T15:12:40.155Z,7.23
2018-08-30T15:14:52.361Z,8.17
2018-08-30T15:17:04.646Z,7.87
2018-08-30T15:19:16.840Z,8.27
2018-08-30T15:21:29.113Z,8.57
2018-08-30T15:23:41.368Z,7.63
2018-08-30T15:25:53.618Z,7.90
2018-08-30T15:28:06.109Z,8.53
2018-08-30T15:30:18.380Z,8.37
2018-08-30T15:32:30.512Z,7.53
2018-08-30T15:34:42.750Z,7.77
2018-08-30T15:36:54.924Z,7.10
2018-08-30T15:39:08.014Z,8.47
2018-08-30T15:41:20.257Z,7.80
2018-08-30T15:43:32.572Z,7.40
2018-08-30T15:45:44.700Z,8.10
2018-08-30T15:47:56.951Z,8.10
2018-08-30T15:50:09.178Z,8.20
2018-08-30T15:52:21.388Z,8.10
2018-08-30T15:54:33.642Z,8.03
2018-08-30T15:56:45.853Z,8.07
2018-08-30T15:58:58.108Z,7.70
2018-08-30T16:01:10.394Z,8.47
2018-08-30T16:03:22.598Z,8.17
2018-08-30T16:05:34.851Z,7.87
2018-08-30T16:07:47.106Z,8.50
2018-08-30T16:09:59.435Z,8.93
2018-08-30T16:12:11.551Z,8.13
2018-08-30T16:14:23.796Z,8.27
2018-08-30T16:16:36.006Z,7.77
2018-08-30T16:18:48.248Z,8.10
2018-08-30T16:21:00.735Z,8.33
2018-08-30T16:23:25.576Z,8.53
2018-08-30T16:25:37.796Z,7.83
2018-08-30T16:27:50.059Z,8.57
2018-08-30T16:30:02.327Z,8.47
2018-08-30T16:32:14.598Z,8.90
2018-08-30T16:34:26.854Z,8.17
2018-08-30T16:36:39.095Z,8.87
2018-08-30T16:38:51.302Z,8.90
2018-08-30T16:41:03.579Z,8.70
2018-08-30T16:43:15.842Z,7.97
2018-08-30T16:45:28.110Z,7.10
2018-08-30T16:47:40.378Z,7.33
2018-08-30T16:49:52.594Z,7.03
2018-08-30T16:52:04.854Z,7.20
2018-08-30T16:54:17.055Z,6.83
2018-08-30T16:56:29.268Z,6.33
2018-08-30T16:58:41.506Z,6.67
2018-08-30T17:00:53.811Z,5.77
2018-08-30T17:03:06.411Z,6.27
2018-08-30T17:05:18.657Z,6.47
2018-08-30T17:07:30.970Z,6.40
2018-08-30T17:09:43.204Z,6.37
2018-08-30T17:11:55.531Z,7.10
2018-08-30T17:14:07.805Z,6.27
2018-08-30T17:16:20.134Z,6.03
2018-08-30T17:18:32.422Z,6.50
2018-08-30T17:20:49.499Z,5.77
2018-08-30T17:23:01.723Z,5.87
2018-08-30T17:25:14.023Z,7.20
2018-08-30T17:27:26.228Z,6.97
2018-08-30T17:29:38.472Z,6.63
2018-08-30T17:31:50.798Z,6.20
2018-08-30T17:34:03.061Z,7.23
2018-08-30T17:36:15.314Z,6.33
2018-08-30T17:38:27.573Z,6.27
2018-08-30T17:40:39.845Z,7.43
2018-08-30T17:42:52.128Z,6.40
2018-08-30T17:45:04.581Z,6.30
2018-08-30T17:47:16.855Z,7.03
2018-08-30T17:49:29.107Z,7.07
2018-08-30T17:51:41.446Z,6.90
2018-08-30T17:53:53.639Z,6.83
2018-08-30T17:56:06.076Z,7.23
2018-08-30T17:58:18.314Z,7.13
2018-08-30T18:00:30.583Z,7.47
2018-08-30T18:02:43.954Z,6.47
2018-08-30T18:04:56.243Z,8.07
2018-08-30T18:07:08.615Z,7.43
2018-08-30T18:09:20.794Z,7.80
2018-08-30T18:11:33.095Z,6.83
2018-08-30T18:13:45.305Z,8.00
2018-08-30T18:15:57.581Z,7.43
2018-08-30T18:18:09.906Z,6.70
2018-08-30T18:20:22.160Z,6.67
2018-08-30T18:22:34.410Z,6.87
2018-08-30T18:24:46.662Z,7.57
2018-08-30T18:26:58.951Z,7.37
2018-08-30T18:29:11.413Z,7.10
2018-08-30T18:31:23.698Z,8.13
2018-08-30T18:33:35.874Z,7.70
2018-08-30T18:35:48.123Z,6.83
2018-08-30T18:38:00.416Z,7.67
2018-08-30T18:40:12.689Z,7.23
2018-08-30T18:42:25.012Z,8.00
2018-08-30T18:44:37.183Z,8.00
2018-08-30T18:46:49.455Z,7.53
2018-08-30T18:49:01.727Z,7.87
2018-08-30T18:51:13.966Z,7.57
2018-08-30T18:53:26.200Z,8.13
2018-08-30T18:55:38.429Z,8.50
2018-08-30T18:57:50.629Z,8.20
2018-08-30T19:00:02.939Z,8.00
2018-08-30T19:02:15.211Z,7.87
2018-08-30T19:04:27.565Z,8.17
2018-08-30T19:06:39.811Z,8.17
2018-08-30T19:08:52.357Z,8.47
2018-08-30T19:11:04.974Z,8.27
2018-08-30T19:13:17.451Z,8.07
2018-08-30T19:15:35.324Z,7.70
2018-08-30T19:17:53.277Z,8.83
2018-08-30T19:20:05.755Z,8.43
2018-08-30T19:22:18.354Z,8.30
2018-08-30T19:24:36.236Z,8.30
2018-08-30T19:26:48.792Z,8.17
2018-08-30T19:29:01.083Z,8.73
2018-08-30T19:31:13.572Z,8.93
2018-08-30T19:33:25.907Z,8.47
2018-08-30T19:35:43.854Z,7.43
2018-08-30T19:37:56.244Z,8.70
2018-08-30T19:40:13.128Z,9.07
2018-08-30T19:42:25.483Z,8.77
2018-08-30T19:44:37.744Z,7.87
2018-08-30T19:46:50.018Z,8.80
2018-08-30T19:49:02.437Z,9.53
2018-08-30T19:51:14.684Z,9.53
2018-08-30T19:53:26.931Z,8.87
2018-08-30T19:55:39.201Z,8.50
2018-08-30T19:57:51.450Z,8.93
2018-08-30T20:00:03.828Z,8.97
2018-08-30T20:02:16.114Z,9.03
2018-08-30T20:04:28.403Z,8.90
2018-08-30T20:06:40.655Z,8.93
2018-08-30T20:08:52.903Z,8.13
2018-08-30T20:11:05.354Z,7.47
2018-08-30T20:13:17.747Z,8.20
2018-08-30T20:15:29.921Z,7.90
2018-08-30T20:17:42.157Z,8.97
2018-08-30T20:19:54.411Z,9.10
2018-08-30T20:22:08.804Z,8.73
2018-08-30T20:24:21.010Z,9.20
2018-08-30T20:26:33.273Z,9.43
2018-08-30T20:28:45.483Z,9.60
2018-08-30T20:30:57.745Z,8.87
2018-08-30T20:33:09.991Z,8.90
2018-08-30T20:35:22.260Z,9.47
2018-08-30T20:37:35.353Z,9.20
2018-08-30T20:39:47.683Z,9.30
2018-08-30T20:41:59.903Z,9.37
2018-08-30T20:44:12.106Z,8.37
2018-08-30T20:46:24.340Z,9.67
2018-08-30T20:48:36.642Z,9.33
2018-08-30T20:50:48.852Z,8.60
2018-08-30T20:53:01.059Z,9.93
2018-08-30T20:55:13.283Z,9.73
2018-08-30T20:57:25.983Z,10.47
2018-08-30T20:59:38.255Z,9.30
2018-08-30T21:01:50.468Z,9.47
2018-08-30T21:04:02.695Z,10.57
2018-08-30T21:06:14.934Z,10.63
2018-08-30T21:08:27.208Z,10.07
2018-08-30T21:10:39.510Z,9.10
2018-08-30T21:12:51.722Z,9.60
2018-08-30T21:15:03.964Z,10.93
2018-08-30T21:17:16.180Z,9.80
2018-08-30T21:19:28.430Z,10.33
2018-08-30T21:21:40.616Z,10.40
2018-08-30T21:23:53.074Z,10.67
2018-08-30T21:26:05.591Z,10.03
2018-08-30T21:28:17.806Z,9.80
2018-08-30T21:30:30.046Z,10.70
2018-08-30T21:32:42.306Z,10.57
2018-08-30T21:34:54.511Z,8.50
2018-08-30T21:37:06.743Z,10.27
2018-08-30T21:39:18.931Z,10.80
2018-08-30T21:41:31.164Z,10.77
2018-08-30T21:43:43.378Z,11.00
2018-08-30T21:45:55.697Z,11.13
2018-08-30T21:48:08.006Z,10.43
2018-08-30T21:50:20.294Z,11.17
2018-08-30T21:52:32.466Z,10.87
2018-08-30T21:54:44.727Z,11.00
2018-08-30T21:56:56.922Z,11.00
2018-08-30T21:59:09.134Z,10.87
2018-08-30T22:01:21.403Z,11.50
2018-08-30T22:03:33.614Z,10.80
2018-08-30T22:05:45.871Z,11.03
2018-08-30T22:07:58.130Z,10.70
2018-08-30T22:10:10.323Z,11.50
2018-08-30T22:12:22.578Z,10.40
2018-08-30T22:14:34.771Z,10.20
2018-08-30T22:16:47.023Z,11.53
2018-08-30T22:18:59.255Z,11.73
2018-08-30T22:21:11.415Z,11.67
2018-08-30T22:23:23.655Z,10.43
2018-08-30T22:25:35.861Z,10.60
2018-08-30T22:27:48.082Z,12.10
2018-08-30T22:30:00.291Z,10.87
2018-08-30T22:32:12.522Z,9.63
2018-08-30T22:34:24.713Z,10.93
2018-08-30T22:36:36.905Z,10.37
2018-08-30T22:38:49.121Z,9.90
2018-08-30T22:41:01.426Z,10.83
2018-08-30T22:43:13.652Z,10.67
2018-08-30T22:45:25.816Z,10.47
2018-08-30T22:47:38.027Z,11.30
2018-08-30T22:49:50.202Z,10.40
2018-08-30T22:52:02.403Z,10.73
2018-08-30T22:54:14.600Z,10.73
2018-08-30T22:56:26.785Z,11.00
2018-08-30T22:58:39.011Z,10.50
2018-08-30T23:00:51.166Z,10.40
2018-08-30T23:03:03.410Z,10.37
2018-08-30T23:05:15.623Z,10.40
2018-08-30T23:07:27.814Z,10.00
2018-08-30T23:09:40.003Z,9.87
2018-08-30T23:11:52.212Z,10.20
2018-08-30T23:14:04.474Z,9.93
2018-08-30T23:16:16.654Z,9.50
2018-08-30T23:18:28.840Z,11.43
2018-08-30T23:20:41.055Z,11.77
2018-08-30T23:22:53.257Z,11.13
2018-08-30T23:25:05.632Z,11.83
2018-08-30T23:27:17.808Z,11.63
2018-08-30T23:29:30.030Z,11.47
2018-08-30T23:31:42.217Z,12.00
2018-08-30T23:33:54.446Z,11.40
2018-08-30T23:36:06.675Z,11.20
2018-08-30T23:38:18.862Z,11.23
2018-08-30T23:40:31.070Z,11.73
2018-08-30T23:42:43.215Z,11.90
2018-08-30T23:44:55.401Z,11.47
2018-08-30T23:47:07.612Z,11.53
2018-08-30T23:49:19.844Z,12.20
2018-08-30T23:51:32.093Z,12.17
2018-08-30T23:53:44.267Z,13.23
2018-08-30T23:55:56.448Z,12.27
2018-08-30T23:58:20.053Z,11.87
